< < Back
Terminal Aerodrome Forecast


Current Version              Previous Versions:   1  2  3  4  5  6  7  8  9  

Terminal Aerodrome Forecast

746
FTUS44 KBMX 300500
TAFANB
TAF
KANB 300528Z 3006/0106 00000KT P6SM BKN020
      TEMPO 3008/3012 4SM BR OVC011
     FM301500 05003KT P6SM SKC=

Latest METAR

294
SAUS70 KWBC 301000 RRP
MTRANB
METAR KANB 300953Z AUTO 07003KT 10SM OVC014 19/18 A2995 RMK AO2 SLP134
T01940178


USA.gov is the U.S. government's official web portal to all federal, state and local government web resources and services.